KMBG

Details ICAO KMBG
Name MOBRIDGE MUNI
Region United States
Timezone America/Chicago (UTC-6.0)
Plans Departing 2
Arriving 7
Stats Elevation 1,715 ft / 523 m (AMSL)
Location 45.546283° -100.405557°
Runways 2
Magnetic Variation 5.708° E
Sunrise 2017-12-16 14:17:22 UTC / 2017-12-16 08:17:22 Local
Sunset 2017-12-16 23:00:10 UTC / 2017-12-16 17:00:10 Local
Advertisement - Login to hide

Runways

ID Width Length Bearing (true) Bearing (mag) Surface Threshold Offset Overrun Length
12 75 ft / 23 m 4,406 ft / 1,343 m 126.76° 121.05° Asphalt 0 ft / 0 m 0 ft / 0 m
17 250 ft / 76 m 2,404 ft / 733 m 180.00° 174.29° Grass 0 ft / 0 m 0 ft / 0 m
30 75 ft / 23 m 4,406 ft / 1,343 m 306.77° 301.06° Asphalt 0 ft / 0 m 0 ft / 0 m
35 250 ft / 76 m 2,404 ft / 733 m 0.00° 354.29° Grass 0 ft / 0 m 0 ft / 0 m

Map

Weather


0- 5 10 15 20 25 30 35+ Temperature / ° C

Clouds and Precipitation
Forecast for 2017-12-17 00:00 UTC. Updated 2 hours ago

Ground ~20,000 ft ~40,000 ft Winds

METAR

KMBG 162103Z AUTO 35004KT 10SM SCT027 06/M01 A2993

TAF

TAF AMD KMBG 162030Z 1621/1718 34007KT P6SM BKN030 TEMPO 1700/1704 SCT030 BKN150 FM170400 VRB03KT P6SM OVC120

Frequencies

Recorded 121.42 MHz ASOS
Unicom 122.80 MHz CTAF/UNICOM
Warning: Do not use this data for real-world aviation or navigation. No guarantee of current accuracy is given.